sensor_id;sensor_type;location;lat;lon;timestamp;temperature;humidity
5683;DHT22;2864;49.220;8.654;2023-07-13T00:01:16;17.80;80.30
5683;DHT22;2864;49.220;8.654;2023-07-13T00:03:41;17.70;80.60
5683;DHT22;2864;49.220;8.654;2023-07-13T00:06:08;17.60;81.00
5683;DHT22;2864;49.220;8.654;2023-07-13T00:08:34;17.50;81.70
5683;DHT22;2864;49.220;8.654;2023-07-13T00:11:03;17.50;82.00
5683;DHT22;2864;49.220;8.654;2023-07-13T00:13:30;17.50;82.80
5683;DHT22;2864;49.220;8.654;2023-07-13T00:15:57;17.40;84.20
5683;DHT22;2864;49.220;8.654;2023-07-13T00:18:23;17.30;85.60
5683;DHT22;2864;49.220;8.654;2023-07-13T00:20:48;17.10;86.60
5683;DHT22;2864;49.220;8.654;2023-07-13T00:23:14;17.10;88.30
5683;DHT22;2864;49.220;8.654;2023-07-13T00:29:02;17.00;90.10
5683;DHT22;2864;49.220;8.654;2023-07-13T00:31:28;16.90;90.50
5683;DHT22;2864;49.220;8.654;2023-07-13T00:33:53;16.90;90.80
5683;DHT22;2864;49.220;8.654;2023-07-13T00:36:19;16.90;91.00
5683;DHT22;2864;49.220;8.654;2023-07-13T00:38:45;16.80;91.40
5683;DHT22;2864;49.220;8.654;2023-07-13T00:41:11;16.70;91.50
5683;DHT22;2864;49.220;8.654;2023-07-13T00:43:37;16.70;91.90
5683;DHT22;2864;49.220;8.654;2023-07-13T00:46:21;16.60;92.20
5683;DHT22;2864;49.220;8.654;2023-07-13T00:48:48;16.60;92.70
5683;DHT22;2864;49.220;8.654;2023-07-13T00:51:17;16.60;93.40
5683;DHT22;2864;49.220;8.654;2023-07-13T00:53:43;16.50;93.90
5683;DHT22;2864;49.220;8.654;2023-07-13T00:56:10;17.10;94.80
5683;DHT22;2864;49.220;8.654;2023-07-13T00:58:36;16.30;95.20
5683;DHT22;2864;49.220;8.654;2023-07-13T01:01:01;16.30;95.70
5683;DHT22;2864;49.220;8.654;2023-07-13T01:03:27;16.10;96.30
5683;DHT22;2864;49.220;8.654;2023-07-13T01:05:53;13.50;95.30
5683;DHT22;2864;49.220;8.654;2023-07-13T01:08:20;16.00;97.00
5683;DHT22;2864;49.220;8.654;2023-07-13T01:10:53;16.00;97.40
5683;DHT22;2864;49.220;8.654;2023-07-13T01:13:19;16.00;97.70
5683;DHT22;2864;49.220;8.654;2023-07-13T01:15:47;16.10;97.70
5683;DHT22;2864;49.220;8.654;2023-07-13T01:18:19;16.10;97.20
5683;DHT22;2864;49.220;8.654;2023-07-13T01:20:51;16.20;97.40
5683;DHT22;2864;49.220;8.654;2023-07-13T01:23:16;16.20;97.60
5683;DHT22;2864;49.220;8.654;2023-07-13T01:25:42;16.40;97.40
5683;DHT22;2864;49.220;8.654;2023-07-13T01:28:08;16.40;97.00
5683;DHT22;2864;49.220;8.654;2023-07-13T01:30:35;16.30;97.00
5683;DHT22;2864;49.220;8.654;2023-07-13T01:33:00;16.30;97.30
5683;DHT22;2864;49.220;8.654;2023-07-13T01:35:27;16.20;97.70
5683;DHT22;2864;49.220;8.654;2023-07-13T01:37:53;16.10;98.20
5683;DHT22;2864;49.220;8.654;2023-07-13T01:40:19;16.00;98.70
5683;DHT22;2864;49.220;8.654;2023-07-13T01:42:45;16.00;98.70
5683;DHT22;2864;49.220;8.654;2023-07-13T01:45:11;16.10;99.30
5683;DHT22;2864;49.220;8.654;2023-07-13T01:47:37;16.00;99.40
5683;DHT22;2864;49.220;8.654;2023-07-13T01:50:03;16.00;99.60
5683;DHT22;2864;49.220;8.654;2023-07-13T01:52:28;16.00;99.50
5683;DHT22;2864;49.220;8.654;2023-07-13T01:54:54;15.90;99.80
5683;DHT22;2864;49.220;8.654;2023-07-13T01:57:19;15.90;99.90
5683;DHT22;2864;49.220;8.654;2023-07-13T02:03:07;15.80;99.90
5683;DHT22;2864;49.220;8.654;2023-07-13T02:05:32;15.70;99.90
5683;DHT22;2864;49.220;8.654;2023-07-13T02:07:58;16.60;99.90
5683;DHT22;2864;49.220;8.654;2023-07-13T02:10:24;15.50;99.90
5683;DHT22;2864;49.220;8.654;2023-07-13T02:12:50;15.40;99.90
5683;DHT22;2864;49.220;8.654;2023-07-13T02:15:16;15.30;99.90
5683;DHT22;2864;49.220;8.654;2023-07-13T02:17:42;16.30;99.90
5683;DHT22;2864;49.220;8.654;2023-07-13T02:20:08;15.10;99.90
5683;DHT22;2864;49.220;8.654;2023-07-13T02:22:35;15.00;99.90
5683;DHT22;2864;49.220;8.654;2023-07-13T02:25:00;14.90;99.90
5683;DHT22;2864;49.220;8.654;2023-07-13T02:27:26;14.80;99.90
5683;DHT22;2864;49.220;8.654;2023-07-13T02:29:52;14.70;99.90
5683;DHT22;2864;49.220;8.654;2023-07-13T02:32:18;14.60;99.90
5683;DHT22;2864;49.220;8.654;2023-07-13T02:34:44;14.60;99.90
5683;DHT22;2864;49.220;8.654;2023-07-13T02:37:09;14.50;99.90
5683;DHT22;2864;49.220;8.654;2023-07-13T02:39:35;16.10;99.90
5683;DHT22;2864;49.220;8.654;2023-07-13T02:42:00;14.50;99.90
5683;DHT22;2864;49.220;8.654;2023-07-13T02:44:26;14.50;99.90
5683;DHT22;2864;49.220;8.654;2023-07-13T02:46:52;14.40;99.90
5683;DHT22;2864;49.220;8.654;2023-07-13T02:49:18;14.30;99.90
5683;DHT22;2864;49.220;8.654;2023-07-13T02:51:43;14.20;99.90
5683;DHT22;2864;49.220;8.654;2023-07-13T02:54:09;14.20;99.90
5683;DHT22;2864;49.220;8.654;2023-07-13T02:56:35;14.20;99.90
5683;DHT22;2864;49.220;8.654;2023-07-13T02:59:00;15.20;99.90
5683;DHT22;2864;49.220;8.654;2023-07-13T03:01:26;14.30;99.90
5683;DHT22;2864;49.220;8.654;2023-07-13T03:03:52;14.30;99.90
5683;DHT22;2864;49.220;8.654;2023-07-13T03:06:18;14.30;99.90
5683;DHT22;2864;49.220;8.654;2023-07-13T03:08:44;14.30;99.90
5683;DHT22;2864;49.220;8.654;2023-07-13T03:11:12;14.30;99.90
5683;DHT22;2864;49.220;8.654;2023-07-13T03:13:40;14.30;99.90
5683;DHT22;2864;49.220;8.654;2023-07-13T03:16:06;16.80;99.90
5683;DHT22;2864;49.220;8.654;2023-07-13T03:18:32;14.20;99.90
5683;DHT22;2864;49.220;8.654;2023-07-13T03:20:58;14.20;99.90
5683;DHT22;2864;49.220;8.654;2023-07-13T03:23:24;14.10;99.90
5683;DHT22;2864;49.220;8.654;2023-07-13T03:25:50;14.10;99.90
5683;DHT22;2864;49.220;8.654;2023-07-13T03:28:26;14.10;99.90
5683;DHT22;2864;49.220;8.654;2023-07-13T03:31:03;14.00;99.90
5683;DHT22;2864;49.220;8.654;2023-07-13T03:33:29;14.00;99.90
5683;DHT22;2864;49.220;8.654;2023-07-13T03:35:54;14.00;99.90
5683;DHT22;2864;49.220;8.654;2023-07-13T03:38:20;13.90;99.90
5683;DHT22;2864;49.220;8.654;2023-07-13T03:40:45;13.90;99.90
5683;DHT22;2864;49.220;8.654;2023-07-13T03:43:11;13.90;99.90
5683;DHT22;2864;49.220;8.654;2023-07-13T03:45:38;13.90;99.90
5683;DHT22;2864;49.220;8.654;2023-07-13T03:48:03;13.90;99.90
5683;DHT22;2864;49.220;8.654;2023-07-13T03:50:30;13.90;99.90
5683;DHT22;2864;49.220;8.654;2023-07-13T03:52:57;13.80;99.90
5683;DHT22;2864;49.220;8.654;2023-07-13T03:55:23;13.80;99.90
5683;DHT22;2864;49.220;8.654;2023-07-13T03:57:57;13.90;99.90
5683;DHT22;2864;49.220;8.654;2023-07-13T04:00:23;13.90;99.90
5683;DHT22;2864;49.220;8.654;2023-07-13T04:02:48;14.00;99.90
5683;DHT22;2864;49.220;8.654;2023-07-13T04:05:15;14.00;99.90
5683;DHT22;2864;49.220;8.654;2023-07-13T04:07:40;14.00;99.90
5683;DHT22;2864;49.220;8.654;2023-07-13T04:10:06;14.00;99.90
5683;DHT22;2864;49.220;8.654;2023-07-13T04:12:32;14.00;99.90
5683;DHT22;2864;49.220;8.654;2023-07-13T04:14:57;14.10;99.90
5683;DHT22;2864;49.220;8.654;2023-07-13T04:17:24;14.10;99.90
5683;DHT22;2864;49.220;8.654;2023-07-13T04:19:50;14.20;99.90
5683;DHT22;2864;49.220;8.654;2023-07-13T04:22:15;14.20;99.90
5683;DHT22;2864;49.220;8.654;2023-07-13T04:24:41;14.20;99.90
5683;DHT22;2864;49.220;8.654;2023-07-13T04:27:07;14.30;99.90
5683;DHT22;2864;49.220;8.654;2023-07-13T04:29:32;14.30;99.90
5683;DHT22;2864;49.220;8.654;2023-07-13T04:31:58;14.40;99.90
5683;DHT22;2864;49.220;8.654;2023-07-13T04:34:24;14.40;99.90
5683;DHT22;2864;49.220;8.654;2023-07-13T04:36:50;14.50;99.90
5683;DHT22;2864;49.220;8.654;2023-07-13T04:39:16;14.60;99.90
5683;DHT22;2864;49.220;8.654;2023-07-13T04:41:41;14.60;99.90
5683;DHT22;2864;49.220;8.654;2023-07-13T04:44:07;14.70;99.90
5683;DHT22;2864;49.220;8.654;2023-07-13T04:46:32;14.80;99.90
5683;DHT22;2864;49.220;8.654;2023-07-13T04:48:58;15.00;99.90
5683;DHT22;2864;49.220;8.654;2023-07-13T04:51:24;15.20;99.90
5683;DHT22;2864;49.220;8.654;2023-07-13T04:53:50;15.50;99.90
5683;DHT22;2864;49.220;8.654;2023-07-13T04:56:15;15.80;99.90
5683;DHT22;2864;49.220;8.654;2023-07-13T04:58:41;17.20;99.90
5683;DHT22;2864;49.220;8.654;2023-07-13T05:01:07;16.10;99.90
5683;DHT22;2864;49.220;8.654;2023-07-13T05:03:34;16.30;99.90
5683;DHT22;2864;49.220;8.654;2023-07-13T05:06:03;16.40;99.90
5683;DHT22;2864;49.220;8.654;2023-07-13T05:08:29;16.60;99.90
5683;DHT22;2864;49.220;8.654;2023-07-13T05:10:54;16.70;99.90
5683;DHT22;2864;49.220;8.654;2023-07-13T05:13:21;16.80;99.90
5683;DHT22;2864;49.220;8.654;2023-07-13T05:15:55;16.80;99.90
5683;DHT22;2864;49.220;8.654;2023-07-13T05:18:21;17.00;99.90
5683;DHT22;2864;49.220;8.654;2023-07-13T05:20:46;17.10;99.90
5683;DHT22;2864;49.220;8.654;2023-07-13T05:23:12;18.00;99.90
5683;DHT22;2864;49.220;8.654;2023-07-13T05:25:37;17.30;99.90
5683;DHT22;2864;49.220;8.654;2023-07-13T05:28:03;17.40;99.90
5683;DHT22;2864;49.220;8.654;2023-07-13T05:30:28;18.60;99.90
5683;DHT22;2864;49.220;8.654;2023-07-13T05:32:54;17.50;99.90
5683;DHT22;2864;49.220;8.654;2023-07-13T05:35:19;17.50;99.90
5683;DHT22;2864;49.220;8.654;2023-07-13T05:37:45;17.60;99.90
5683;DHT22;2864;49.220;8.654;2023-07-13T05:40:10;17.60;99.90
5683;DHT22;2864;49.220;8.654;2023-07-13T05:42:36;17.70;99.90
5683;DHT22;2864;49.220;8.654;2023-07-13T05:45:02;17.80;99.90
5683;DHT22;2864;49.220;8.654;2023-07-13T05:47:28;17.90;99.90
5683;DHT22;2864;49.220;8.654;2023-07-13T05:49:53;18.00;99.90
5683;DHT22;2864;49.220;8.654;2023-07-13T05:52:19;18.10;99.90
5683;DHT22;2864;49.220;8.654;2023-07-13T05:54:44;18.60;99.90
5683;DHT22;2864;49.220;8.654;2023-07-13T05:57:10;18.50;99.90
5683;DHT22;2864;49.220;8.654;2023-07-13T05:59:35;18.50;99.50
5683;DHT22;2864;49.220;8.654;2023-07-13T06:02:01;18.60;99.30
5683;DHT22;2864;49.220;8.654;2023-07-13T06:04:26;18.90;99.00
5683;DHT22;2864;49.220;8.654;2023-07-13T06:06:52;18.90;98.30
5683;DHT22;2864;49.220;8.654;2023-07-13T06:09:18;19.10;98.60
5683;DHT22;2864;49.220;8.654;2023-07-13T06:11:43;19.10;96.60
5683;DHT22;2864;49.220;8.654;2023-07-13T06:14:10;19.00;96.20
5683;DHT22;2864;49.220;8.654;2023-07-13T06:16:35;19.10;96.00
5683;DHT22;2864;49.220;8.654;2023-07-13T06:19:01;19.20;95.70
5683;DHT22;2864;49.220;8.654;2023-07-13T06:21:26;19.30;94.30
5683;DHT22;2864;49.220;8.654;2023-07-13T06:23:52;19.50;92.50
5683;DHT22;2864;49.220;8.654;2023-07-13T06:26:19;19.50;92.50
5683;DHT22;2864;49.220;8.654;2023-07-13T06:28:45;21.40;93.00
5683;DHT22;2864;49.220;8.654;2023-07-13T06:31:12;19.80;91.50
5683;DHT22;2864;49.220;8.654;2023-07-13T06:33:38;19.60;90.60
5683;DHT22;2864;49.220;8.654;2023-07-13T06:36:06;19.70;89.50
5683;DHT22;2864;49.220;8.654;2023-07-13T06:38:33;19.90;89.00
5683;DHT22;2864;49.220;8.654;2023-07-13T06:40:58;20.00;87.90
5683;DHT22;2864;49.220;8.654;2023-07-13T06:43:24;20.20;87.50
5683;DHT22;2864;49.220;8.654;2023-07-13T06:45:55;20.20;85.20
5683;DHT22;2864;49.220;8.654;2023-07-13T06:48:21;20.30;84.00
5683;DHT22;2864;49.220;8.654;2023-07-13T06:50:48;20.40;83.60
5683;DHT22;2864;49.220;8.654;2023-07-13T06:53:15;20.50;83.50
5683;DHT22;2864;49.220;8.654;2023-07-13T06:55:40;20.60;82.00
5683;DHT22;2864;49.220;8.654;2023-07-13T06:58:06;20.70;82.30
5683;DHT22;2864;49.220;8.654;2023-07-13T07:00:32;20.80;81.50
5683;DHT22;2864;49.220;8.654;2023-07-13T07:02:58;20.90;81.70
5683;DHT22;2864;49.220;8.654;2023-07-13T07:05:23;21.20;80.50
5683;DHT22;2864;49.220;8.654;2023-07-13T07:07:55;21.10;80.00
5683;DHT22;2864;49.220;8.654;2023-07-13T07:10:21;20.90;79.00
5683;DHT22;2864;49.220;8.654;2023-07-13T07:12:47;20.90;79.60
5683;DHT22;2864;49.220;8.654;2023-07-13T07:15:13;20.90;79.50
5683;DHT22;2864;49.220;8.654;2023-07-13T07:17:39;21.00;79.20
5683;DHT22;2864;49.220;8.654;2023-07-13T07:20:05;21.10;79.20
5683;DHT22;2864;49.220;8.654;2023-07-13T07:22:31;21.20;77.20
5683;DHT22;2864;49.220;8.654;2023-07-13T07:24:57;21.30;75.40
5683;DHT22;2864;49.220;8.654;2023-07-13T07:27:24;21.30;74.60
5683;DHT22;2864;49.220;8.654;2023-07-13T07:29:50;21.40;74.90
5683;DHT22;2864;49.220;8.654;2023-07-13T07:32:15;21.70;75.50
5683;DHT22;2864;49.220;8.654;2023-07-13T07:34:41;21.60;74.90
5683;DHT22;2864;49.220;8.654;2023-07-13T07:37:06;21.60;73.70
5683;DHT22;2864;49.220;8.654;2023-07-13T07:39:32;21.80;73.50
5683;DHT22;2864;49.220;8.654;2023-07-13T07:41:58;22.10;72.10
5683;DHT22;2864;49.220;8.654;2023-07-13T07:44:23;21.80;72.00
5683;DHT22;2864;49.220;8.654;2023-07-13T07:46:49;21.90;73.30
5683;DHT22;2864;49.220;8.654;2023-07-13T07:49:15;22.00;73.80
5683;DHT22;2864;49.220;8.654;2023-07-13T07:51:40;22.00;73.20
5683;DHT22;2864;49.220;8.654;2023-07-13T07:54:06;22.00;72.80
5683;DHT22;2864;49.220;8.654;2023-07-13T07:56:32;22.20;72.50
5683;DHT22;2864;49.220;8.654;2023-07-13T07:58:58;22.30;72.20
5683;DHT22;2864;49.220;8.654;2023-07-13T08:01:24;22.40;71.40
5683;DHT22;2864;49.220;8.654;2023-07-13T08:03:49;22.40;71.40
5683;DHT22;2864;49.220;8.654;2023-07-13T08:06:15;22.60;72.00
5683;DHT22;2864;49.220;8.654;2023-07-13T08:08:41;22.80;71.40
5683;DHT22;2864;49.220;8.654;2023-07-13T08:11:08;23.10;69.40
5683;DHT22;2864;49.220;8.654;2023-07-13T08:13:34;23.00;69.40
5683;DHT22;2864;49.220;8.654;2023-07-13T08:16:00;23.30;69.90
5683;DHT22;2864;49.220;8.654;2023-07-13T08:18:26;23.20;67.60
5683;DHT22;2864;49.220;8.654;2023-07-13T08:20:53;23.40;66.90
5683;DHT22;2864;49.220;8.654;2023-07-13T08:23:21;23.70;67.00
5683;DHT22;2864;49.220;8.654;2023-07-13T08:25:54;23.70;65.10
5683;DHT22;2864;49.220;8.654;2023-07-13T08:28:21;23.50;63.90
5683;DHT22;2864;49.220;8.654;2023-07-13T08:30:47;23.60;63.40
5683;DHT22;2864;49.220;8.654;2023-07-13T08:33:17;23.30;63.40
5683;DHT22;2864;49.220;8.654;2023-07-13T08:35:46;23.20;63.40
5683;DHT22;2864;49.220;8.654;2023-07-13T08:38:12;23.20;63.10
5683;DHT22;2864;49.220;8.654;2023-07-13T08:40:39;23.40;62.60
5683;DHT22;2864;49.220;8.654;2023-07-13T08:43:07;23.50;62.50
5683;DHT22;2864;49.220;8.654;2023-07-13T08:45:47;23.70;62.60
5683;DHT22;2864;49.220;8.654;2023-07-13T08:49:04;23.70;62.30
5683;DHT22;2864;49.220;8.654;2023-07-13T08:54:21;23.90;62.00
5683;DHT22;2864;49.220;8.654;2023-07-13T08:56:29;24.00;61.60
5683;DHT22;2864;49.220;8.654;2023-07-13T08:59:10;24.20;61.40
5683;DHT22;2864;49.220;8.654;2023-07-13T09:01:48;24.40;61.60
5683;DHT22;2864;49.220;8.654;2023-07-13T09:04:42;24.40;61.50
5683;DHT22;2864;49.220;8.654;2023-07-13T09:10:09;24.90;61.00
5683;DHT22;2864;49.220;8.654;2023-07-13T09:12:49;25.10;60.80
5683;DHT22;2864;49.220;8.654;2023-07-13T09:15:24;25.00;60.10
5683;DHT22;2864;49.220;8.654;2023-07-13T09:17:52;24.90;60.30
5683;DHT22;2864;49.220;8.654;2023-07-13T09:20:23;24.90;60.40
5683;DHT22;2864;49.220;8.654;2023-07-13T09:22:51;25.10;59.90
5683;DHT22;2864;49.220;8.654;2023-07-13T09:25:30;24.80;60.20
5683;DHT22;2864;49.220;8.654;2023-07-13T09:28:08;24.80;61.00
5683;DHT22;2864;49.220;8.654;2023-07-13T09:33:20;24.80;60.00
5683;DHT22;2864;49.220;8.654;2023-07-13T09:35:46;25.30;60.50
5683;DHT22;2864;49.220;8.654;2023-07-13T09:38:14;25.30;59.80
5683;DHT22;2864;49.220;8.654;2023-07-13T09:41:46;25.00;60.60
5683;DHT22;2864;49.220;8.654;2023-07-13T09:43:38;25.00;59.80
5683;DHT22;2864;49.220;8.654;2023-07-13T09:46:04;24.70;59.00
5683;DHT22;2864;49.220;8.654;2023-07-13T09:48:35;24.70;60.00
5683;DHT22;2864;49.220;8.654;2023-07-13T09:51:12;25.20;59.60
5683;DHT22;2864;49.220;8.654;2023-07-13T09:53:41;25.30;59.70
5683;DHT22;2864;49.220;8.654;2023-07-13T09:56:19;25.50;60.00
5683;DHT22;2864;49.220;8.654;2023-07-13T09:58:45;25.50;59.10
5683;DHT22;2864;49.220;8.654;2023-07-13T10:01:11;25.40;59.00
5683;DHT22;2864;49.220;8.654;2023-07-13T10:03:38;25.60;59.40
5683;DHT22;2864;49.220;8.654;2023-07-13T10:06:17;25.50;58.70
5683;DHT22;2864;49.220;8.654;2023-07-13T10:08:45;25.50;58.50
5683;DHT22;2864;49.220;8.654;2023-07-13T10:11:23;25.60;58.90
5683;DHT22;2864;49.220;8.654;2023-07-13T10:13:56;25.80;58.70
5683;DHT22;2864;49.220;8.654;2023-07-13T10:16:24;26.00;58.40
5683;DHT22;2864;49.220;8.654;2023-07-13T10:18:56;26.00;58.50
5683;DHT22;2864;49.220;8.654;2023-07-13T10:21:27;26.10;58.10
5683;DHT22;2864;49.220;8.654;2023-07-13T10:23:56;26.20;58.70
5683;DHT22;2864;49.220;8.654;2023-07-13T10:26:32;26.00;57.90
5683;DHT22;2864;49.220;8.654;2023-07-13T10:29:04;26.50;58.00
5683;DHT22;2864;49.220;8.654;2023-07-13T10:31:32;26.50;57.50
5683;DHT22;2864;49.220;8.654;2023-07-13T10:33:59;26.60;57.60
5683;DHT22;2864;49.220;8.654;2023-07-13T10:36:35;26.30;57.10
5683;DHT22;2864;49.220;8.654;2023-07-13T10:39:05;26.90;57.20
5683;DHT22;2864;49.220;8.654;2023-07-13T10:41:35;27.00;57.10
5683;DHT22;2864;49.220;8.654;2023-07-13T10:44:02;26.70;57.10
5683;DHT22;2864;49.220;8.654;2023-07-13T10:46:30;26.80;57.10
5683;DHT22;2864;49.220;8.654;2023-07-13T10:49:00;27.00;57.10
5683;DHT22;2864;49.220;8.654;2023-07-13T10:51:27;26.50;57.10
5683;DHT22;2864;49.220;8.654;2023-07-13T10:54:26;26.20;57.20
5683;DHT22;2864;49.220;8.654;2023-07-13T10:57:20;26.10;57.30
5683;DHT22;2864;49.220;8.654;2023-07-13T10:59:48;25.90;57.50
5683;DHT22;2864;49.220;8.654;2023-07-13T11:02:27;26.10;57.10
5683;DHT22;2864;49.220;8.654;2023-07-13T11:04:55;26.00;57.20
5683;DHT22;2864;49.220;8.654;2023-07-13T11:07:30;25.60;57.60
5683;DHT22;2864;49.220;8.654;2023-07-13T11:09:59;25.80;57.70
5683;DHT22;2864;49.220;8.654;2023-07-13T11:17:49;26.20;57.80
5683;DHT22;2864;49.220;8.654;2023-07-13T11:22:52;26.60;57.50
5683;DHT22;2864;49.220;8.654;2023-07-13T11:33:11;26.70;56.80
5683;DHT22;2864;49.220;8.654;2023-07-13T11:38:21;27.10;56.90
5683;DHT22;2864;49.220;8.654;2023-07-13T11:40:48;27.60;56.40
5683;DHT22;2864;49.220;8.654;2023-07-13T11:43:16;26.90;56.50
5683;DHT22;2864;49.220;8.654;2023-07-13T11:45:43;27.00;56.60
5683;DHT22;2864;49.220;8.654;2023-07-13T11:48:28;26.90;56.30
5683;DHT22;2864;49.220;8.654;2023-07-13T11:51:01;26.40;56.20
5683;DHT22;2864;49.220;8.654;2023-07-13T11:53:30;27.20;56.30
5683;DHT22;2864;49.220;8.654;2023-07-13T11:55:58;27.30;54.40
5683;DHT22;2864;49.220;8.654;2023-07-13T11:58:26;27.50;54.00
5683;DHT22;2864;49.220;8.654;2023-07-13T12:00:53;28.20;53.70
5683;DHT22;2864;49.220;8.654;2023-07-13T12:03:22;28.30;53.80
5683;DHT22;2864;49.220;8.654;2023-07-13T12:06:05;27.80;53.30
5683;DHT22;2864;49.220;8.654;2023-07-13T12:08:32;27.30;54.00
5683;DHT22;2864;49.220;8.654;2023-07-13T12:11:09;27.40;54.30
5683;DHT22;2864;49.220;8.654;2023-07-13T12:13:39;27.90;54.30
5683;DHT22;2864;49.220;8.654;2023-07-13T12:16:16;27.80;54.60
5683;DHT22;2864;49.220;8.654;2023-07-13T12:18:43;27.40;54.20
5683;DHT22;2864;49.220;8.654;2023-07-13T12:21:13;26.60;54.60
5683;DHT22;2864;49.220;8.654;2023-07-13T12:23:39;26.70;55.00
5683;DHT22;2864;49.220;8.654;2023-07-13T12:26:09;27.00;54.40
5683;DHT22;2864;49.220;8.654;2023-07-13T12:28:48;26.80;54.10
5683;DHT22;2864;49.220;8.654;2023-07-13T12:31:44;26.90;54.40
5683;DHT22;2864;49.220;8.654;2023-07-13T12:34:21;26.90;54.30
5683;DHT22;2864;49.220;8.654;2023-07-13T12:39:16;26.90;53.50
5683;DHT22;2864;49.220;8.654;2023-07-13T12:41:42;26.90;53.50
5683;DHT22;2864;49.220;8.654;2023-07-13T12:44:15;26.30;54.10
5683;DHT22;2864;49.220;8.654;2023-07-13T12:46:56;26.50;54.20
5683;DHT22;2864;49.220;8.654;2023-07-13T12:49:29;27.00;53.90
5683;DHT22;2864;49.220;8.654;2023-07-13T12:52:00;27.70;53.40
5683;DHT22;2864;49.220;8.654;2023-07-13T12:54:27;27.80;53.70
5683;DHT22;2864;49.220;8.654;2023-07-13T12:56:54;28.30;53.40
5683;DHT22;2864;49.220;8.654;2023-07-13T12:59:23;28.40;53.00
5683;DHT22;2864;49.220;8.654;2023-07-13T13:01:51;29.70;52.60
5683;DHT22;2864;49.220;8.654;2023-07-13T13:04:17;30.40;51.60
5683;DHT22;2864;49.220;8.654;2023-07-13T13:06:47;31.90;51.10
5683;DHT22;2864;49.220;8.654;2023-07-13T13:09:14;33.10;49.20
5683;DHT22;2864;49.220;8.654;2023-07-13T13:11:40;31.40;49.90
5683;DHT22;2864;49.220;8.654;2023-07-13T13:14:06;30.00;50.30
5683;DHT22;2864;49.220;8.654;2023-07-13T13:16:34;29.30;51.10
5683;DHT22;2864;49.220;8.654;2023-07-13T13:19:14;29.00;51.20
5683;DHT22;2864;49.220;8.654;2023-07-13T13:21:41;30.80;50.50
5683;DHT22;2864;49.220;8.654;2023-07-13T13:24:12;30.70;49.90
5683;DHT22;2864;49.220;8.654;2023-07-13T13:26:38;29.90;50.60
5683;DHT22;2864;49.220;8.654;2023-07-13T13:29:14;30.40;50.30
5683;DHT22;2864;49.220;8.654;2023-07-13T13:31:40;32.10;49.80
5683;DHT22;2864;49.220;8.654;2023-07-13T13:34:15;31.60;49.20
5683;DHT22;2864;49.220;8.654;2023-07-13T13:36:42;31.40;49.40
5683;DHT22;2864;49.220;8.654;2023-07-13T13:41:48;30.10;49.30
5683;DHT22;2864;49.220;8.654;2023-07-13T13:44:15;29.80;50.00
5683;DHT22;2864;49.220;8.654;2023-07-13T13:46:42;31.30;49.10
5683;DHT22;2864;49.220;8.654;2023-07-13T13:49:13;33.20;48.30
5683;DHT22;2864;49.220;8.654;2023-07-13T13:51:39;34.00;47.80
5683;DHT22;2864;49.220;8.654;2023-07-13T13:54:13;32.80;48.20
5683;DHT22;2864;49.220;8.654;2023-07-13T13:56:41;33.60;47.80
5683;DHT22;2864;49.220;8.654;2023-07-13T13:59:06;33.90;47.60
5683;DHT22;2864;49.220;8.654;2023-07-13T14:01:34;33.60;47.40
5683;DHT22;2864;49.220;8.654;2023-07-13T14:04:01;32.70;47.80
5683;DHT22;2864;49.220;8.654;2023-07-13T14:06:26;32.10;48.10
5683;DHT22;2864;49.220;8.654;2023-07-13T14:08:53;31.90;48.20
5683;DHT22;2864;49.220;8.654;2023-07-13T14:11:21;31.40;49.00
5683;DHT22;2864;49.220;8.654;2023-07-13T14:13:53;30.20;49.70
5683;DHT22;2864;49.220;8.654;2023-07-13T14:16:20;29.60;50.10
5683;DHT22;2864;49.220;8.654;2023-07-13T14:18:48;28.70;50.60
5683;DHT22;2864;49.220;8.654;2023-07-13T14:21:16;29.10;50.20
5683;DHT22;2864;49.220;8.654;2023-07-13T14:23:44;30.00;50.10
5683;DHT22;2864;49.220;8.654;2023-07-13T14:26:28;30.90;49.70
5683;DHT22;2864;49.220;8.654;2023-07-13T14:28:57;31.50;49.20
5683;DHT22;2864;49.220;8.654;2023-07-13T14:31:26;32.00;48.60
5683;DHT22;2864;49.220;8.654;2023-07-13T14:33:54;31.10;47.50
5683;DHT22;2864;49.220;8.654;2023-07-13T14:36:40;34.60;47.30
5683;DHT22;2864;49.220;8.654;2023-07-13T14:39:14;34.00;47.40
5683;DHT22;2864;49.220;8.654;2023-07-13T14:41:40;35.30;46.70
5683;DHT22;2864;49.220;8.654;2023-07-13T14:44:14;34.10;47.30
5683;DHT22;2864;49.220;8.654;2023-07-13T14:46:40;32.80;47.80
5683;DHT22;2864;49.220;8.654;2023-07-13T14:51:52;30.70;48.90
5683;DHT22;2864;49.220;8.654;2023-07-13T14:54:19;29.90;49.20
5683;DHT22;2864;49.220;8.654;2023-07-13T14:56:44;31.70;48.50
5683;DHT22;2864;49.220;8.654;2023-07-13T14:59:10;31.50;48.40
5683;DHT22;2864;49.220;8.654;2023-07-13T15:01:38;31.80;48.20
5683;DHT22;2864;49.220;8.654;2023-07-13T15:04:05;31.00;48.60
5683;DHT22;2864;49.220;8.654;2023-07-13T15:06:31;32.40;47.90
5683;DHT22;2864;49.220;8.654;2023-07-13T15:08:57;32.00;48.40
5683;DHT22;2864;49.220;8.654;2023-07-13T15:11:23;33.70;47.40
5683;DHT22;2864;49.220;8.654;2023-07-13T15:13:49;31.80;48.20
5683;DHT22;2864;49.220;8.654;2023-07-13T15:16:21;30.50;49.00
5683;DHT22;2864;49.220;8.654;2023-07-13T15:18:47;30.00;49.60
5683;DHT22;2864;49.220;8.654;2023-07-13T15:21:21;29.70;49.40
5683;DHT22;2864;49.220;8.654;2023-07-13T15:23:48;29.80;49.30
5683;DHT22;2864;49.220;8.654;2023-07-13T15:26:15;31.40;48.90
5683;DHT22;2864;49.220;8.654;2023-07-13T15:28:42;33.20;47.70
5683;DHT22;2864;49.220;8.654;2023-07-13T15:31:23;34.20;47.00
5683;DHT22;2864;49.220;8.654;2023-07-13T15:33:51;34.20;46.90
5683;DHT22;2864;49.220;8.654;2023-07-13T15:36:18;32.90;47.30
5683;DHT22;2864;49.220;8.654;2023-07-13T15:38:44;33.70;47.10
5683;DHT22;2864;49.220;8.654;2023-07-13T15:41:25;33.50;47.30
5683;DHT22;2864;49.220;8.654;2023-07-13T15:44:07;32.90;47.50
5683;DHT22;2864;49.220;8.654;2023-07-13T15:46:43;33.40;47.40
5683;DHT22;2864;49.220;8.654;2023-07-13T15:49:09;34.20;47.20
5683;DHT22;2864;49.220;8.654;2023-07-13T15:51:35;33.90;47.00
5683;DHT22;2864;49.220;8.654;2023-07-13T15:54:02;34.20;47.00
5683;DHT22;2864;49.220;8.654;2023-07-13T15:56:35;34.60;46.60
5683;DHT22;2864;49.220;8.654;2023-07-13T15:59:02;33.90;46.50
5683;DHT22;2864;49.220;8.654;2023-07-13T16:01:29;32.80;47.10
5683;DHT22;2864;49.220;8.654;2023-07-13T16:03:55;32.50;47.30
5683;DHT22;2864;49.220;8.654;2023-07-13T16:06:24;31.00;48.30
5683;DHT22;2864;49.220;8.654;2023-07-13T16:08:52;31.40;48.20
5683;DHT22;2864;49.220;8.654;2023-07-13T16:11:24;32.40;47.30
5683;DHT22;2864;49.220;8.654;2023-07-13T16:13:51;33.50;46.60
5683;DHT22;2864;49.220;8.654;2023-07-13T16:16:26;30.20;46.20
5683;DHT22;2864;49.220;8.654;2023-07-13T16:18:54;31.70;48.80
5683;DHT22;2864;49.220;8.654;2023-07-13T16:21:22;31.70;47.50
5683;DHT22;2864;49.220;8.654;2023-07-13T16:23:48;32.00;47.70
5683;DHT22;2864;49.220;8.654;2023-07-13T16:26:30;31.50;48.10
5683;DHT22;2864;49.220;8.654;2023-07-13T16:29:13;31.90;47.80
5683;DHT22;2864;49.220;8.654;2023-07-13T16:31:39;31.50;48.20
5683;DHT22;2864;49.220;8.654;2023-07-13T16:34:05;32.40;48.00
5683;DHT22;2864;49.220;8.654;2023-07-13T16:36:31;33.50;46.80
5683;DHT22;2864;49.220;8.654;2023-07-13T16:38:58;33.30;47.20
5683;DHT22;2864;49.220;8.654;2023-07-13T16:41:24;34.00;46.50
5683;DHT22;2864;49.220;8.654;2023-07-13T16:43:49;33.20;47.20
5683;DHT22;2864;49.220;8.654;2023-07-13T16:46:20;34.80;46.70
5683;DHT22;2864;49.220;8.654;2023-07-13T16:48:47;33.80;46.30
5683;DHT22;2864;49.220;8.654;2023-07-13T16:51:12;33.20;46.90